sensor_id;sensor_type;location;lat;lon;timestamp;temperature;humidity
49821;DHT22;36893;52.520;13.450;2023-08-30T00:08:55;25.40;73.10
49821;DHT22;36893;52.520;13.450;2023-08-30T00:18:57;25.40;73.00
49821;DHT22;36893;52.520;13.450;2023-08-30T00:28:58;25.40;73.00
49821;DHT22;36893;52.520;13.450;2023-08-30T00:38:58;25.40;72.90
49821;DHT22;36893;52.520;13.450;2023-08-30T00:49:03;25.40;72.80
49821;DHT22;36893;52.520;13.450;2023-08-30T00:59:04;25.40;72.70
49821;DHT22;36893;52.520;13.450;2023-08-30T01:09:05;25.40;72.70
49821;DHT22;36893;52.520;13.450;2023-08-30T01:19:39;25.40;72.60
49821;DHT22;36893;52.520;13.450;2023-08-30T01:29:54;25.40;72.60
49821;DHT22;36893;52.520;13.450;2023-08-30T01:39:57;25.30;72.40
49821;DHT22;36893;52.520;13.450;2023-08-30T01:49:58;25.30;72.40
49821;DHT22;36893;52.520;13.450;2023-08-30T01:59:59;25.30;72.30
49821;DHT22;36893;52.520;13.450;2023-08-30T02:10:02;25.30;72.30
49821;DHT22;36893;52.520;13.450;2023-08-30T02:20:12;25.30;72.30
49821;DHT22;36893;52.520;13.450;2023-08-30T02:30:13;25.40;72.20
49821;DHT22;36893;52.520;13.450;2023-08-30T02:40:14;25.30;72.20
49821;DHT22;36893;52.520;13.450;2023-08-30T02:50:14;25.30;72.10
49821;DHT22;36893;52.520;13.450;2023-08-30T03:00:15;25.30;72.00
49821;DHT22;36893;52.520;13.450;2023-08-30T03:10:16;25.30;72.00
49821;DHT22;36893;52.520;13.450;2023-08-30T03:20:17;25.30;72.00
49821;DHT22;36893;52.520;13.450;2023-08-30T03:30:17;25.30;71.90
49821;DHT22;36893;52.520;13.450;2023-08-30T03:40:18;25.30;71.90
49821;DHT22;36893;52.520;13.450;2023-08-30T03:50:19;25.30;71.80
49821;DHT22;36893;52.520;13.450;2023-08-30T04:00:19;25.30;71.90
49821;DHT22;36893;52.520;13.450;2023-08-30T04:10:20;25.30;71.70
49821;DHT22;36893;52.520;13.450;2023-08-30T04:20:21;25.30;71.70
49821;DHT22;36893;52.520;13.450;2023-08-30T04:30:21;25.30;71.60
49821;DHT22;36893;52.520;13.450;2023-08-30T04:40:22;25.30;71.60
49821;DHT22;36893;52.520;13.450;2023-08-30T04:50:23;25.30;71.60
49821;DHT22;36893;52.520;13.450;2023-08-30T05:00:23;25.30;71.30
49821;DHT22;36893;52.520;13.450;2023-08-30T05:10:24;25.00;71.30
49821;DHT22;36893;52.520;13.450;2023-08-30T05:20:25;25.00;71.50
49821;DHT22;36893;52.520;13.450;2023-08-30T05:30:25;25.10;71.50
49821;DHT22;36893;52.520;13.450;2023-08-30T05:40:26;25.10;71.50
49821;DHT22;36893;52.520;13.450;2023-08-30T05:50:26;25.20;71.50
49821;DHT22;36893;52.520;13.450;2023-08-30T06:00:27;25.20;71.60
49821;DHT22;36893;52.520;13.450;2023-08-30T06:10:28;25.20;71.60
49821;DHT22;36893;52.520;13.450;2023-08-30T06:20:29;25.20;71.60
49821;DHT22;36893;52.520;13.450;2023-08-30T06:30:29;25.30;71.80
49821;DHT22;36893;52.520;13.450;2023-08-30T06:40:30;25.30;71.80
49821;DHT22;36893;52.520;13.450;2023-08-30T06:50:31;25.30;71.90
49821;DHT22;36893;52.520;13.450;2023-08-30T07:00:31;25.30;71.90
49821;DHT22;36893;52.520;13.450;2023-08-30T07:10:33;25.30;71.90
49821;DHT22;36893;52.520;13.450;2023-08-30T07:20:35;25.30;71.90
49821;DHT22;36893;52.520;13.450;2023-08-30T07:30:36;25.30;71.90
49821;DHT22;36893;52.520;13.450;2023-08-30T07:40:38;25.30;71.80
49821;DHT22;36893;52.520;13.450;2023-08-30T07:50:38;25.30;71.80
49821;DHT22;36893;52.520;13.450;2023-08-30T08:00:39;25.10;71.30
49821;DHT22;36893;52.520;13.450;2023-08-30T08:10:41;24.80;71.40
49821;DHT22;36893;52.520;13.450;2023-08-30T08:20:42;24.60;71.30
49821;DHT22;36893;52.520;13.450;2023-08-30T08:30:44;24.40;71.30
49821;DHT22;36893;52.520;13.450;2023-08-30T08:40:45;24.30;70.90
49821;DHT22;36893;52.520;13.450;2023-08-30T08:50:46;24.30;70.60
49821;DHT22;36893;52.520;13.450;2023-08-30T09:00:47;24.30;70.30
49821;DHT22;36893;52.520;13.450;2023-08-30T09:10:47;24.30;69.90
49821;DHT22;36893;52.520;13.450;2023-08-30T09:20:50;24.30;69.70
49821;DHT22;36893;52.520;13.450;2023-08-30T09:30:52;24.30;69.50
49821;DHT22;36893;52.520;13.450;2023-08-30T09:41:03;24.40;69.30
49821;DHT22;36893;52.520;13.450;2023-08-30T09:51:06;24.50;69.00
49821;DHT22;36893;52.520;13.450;2023-08-30T10:01:08;24.60;68.80
49821;DHT22;36893;52.520;13.450;2023-08-30T10:11:09;24.80;68.70
49821;DHT22;36893;52.520;13.450;2023-08-30T10:21:12;24.90;68.40
49821;DHT22;36893;52.520;13.450;2023-08-30T10:31:14;25.10;68.10
49821;DHT22;36893;52.520;13.450;2023-08-30T10:41:20;25.20;67.50
49821;DHT22;36893;52.520;13.450;2023-08-30T10:51:36;25.30;67.30
49821;DHT22;36893;52.520;13.450;2023-08-30T11:01:38;25.30;66.90
49821;DHT22;36893;52.520;13.450;2023-08-30T11:11:40;25.30;67.00
49821;DHT22;36893;52.520;13.450;2023-08-30T11:21:44;25.40;67.10
49821;DHT22;36893;52.520;13.450;2023-08-30T11:31:45;25.40;66.70
49821;DHT22;36893;52.520;13.450;2023-08-30T11:41:47;25.40;66.30
49821;DHT22;36893;52.520;13.450;2023-08-30T11:51:47;25.40;66.00
49821;DHT22;36893;52.520;13.450;2023-08-30T12:01:49;25.40;65.60
49821;DHT22;36893;52.520;13.450;2023-08-30T12:11:49;25.40;65.40
49821;DHT22;36893;52.520;13.450;2023-08-30T12:21:50;25.40;65.20
49821;DHT22;36893;52.520;13.450;2023-08-30T12:31:51;25.30;64.90
49821;DHT22;36893;52.520;13.450;2023-08-30T12:41:51;25.30;64.40
49821;DHT22;36893;52.520;13.450;2023-08-30T12:51:52;25.30;64.10
49821;DHT22;36893;52.520;13.450;2023-08-30T13:01:53;25.30;63.90
49821;DHT22;36893;52.520;13.450;2023-08-30T13:11:53;25.30;63.80
49821;DHT22;36893;52.520;13.450;2023-08-30T13:21:54;25.30;63.70
49821;DHT22;36893;52.520;13.450;2023-08-30T13:31:55;25.30;63.60
49821;DHT22;36893;52.520;13.450;2023-08-30T13:41:56;25.30;63.50
49821;DHT22;36893;52.520;13.450;2023-08-30T13:51:57;25.40;63.80
49821;DHT22;36893;52.520;13.450;2023-08-30T14:01:58;25.40;63.80
49821;DHT22;36893;52.520;13.450;2023-08-30T14:11:59;25.40;64.80
49821;DHT22;36893;52.520;13.450;2023-08-30T14:21:59;25.40;64.10
49821;DHT22;36893;52.520;13.450;2023-08-30T14:32:02;25.40;64.30
49821;DHT22;36893;52.520;13.450;2023-08-30T14:42:03;25.40;64.50
49821;DHT22;36893;52.520;13.450;2023-08-30T14:52:04;25.40;64.70
49821;DHT22;36893;52.520;13.450;2023-08-30T15:02:04;25.50;64.90
49821;DHT22;36893;52.520;13.450;2023-08-30T15:12:05;25.50;65.00
49821;DHT22;36893;52.520;13.450;2023-08-30T15:22:06;25.50;65.10
49821;DHT22;36893;52.520;13.450;2023-08-30T15:32:07;25.50;65.10
49821;DHT22;36893;52.520;13.450;2023-08-30T15:42:08;25.50;65.20
49821;DHT22;36893;52.520;13.450;2023-08-30T15:52:09;25.50;65.30
49821;DHT22;36893;52.520;13.450;2023-08-30T16:02:09;25.50;65.40
49821;DHT22;36893;52.520;13.450;2023-08-30T16:12:10;25.50;65.50
49821;DHT22;36893;52.520;13.450;2023-08-30T16:22:11;25.50;65.50
49821;DHT22;36893;52.520;13.450;2023-08-30T16:32:12;25.50;65.20
49821;DHT22;36893;52.520;13.450;2023-08-30T16:42:12;25.40;65.00
49821;DHT22;36893;52.520;13.450;2023-08-30T16:52:13;25.40;64.90
49821;DHT22;36893;52.520;13.450;2023-08-30T17:02:14;25.40;64.70
49821;DHT22;36893;52.520;13.450;2023-08-30T17:12:14;25.40;64.60
49821;DHT22;36893;52.520;13.450;2023-08-30T17:22:15;25.40;64.50
49821;DHT22;36893;52.520;13.450;2023-08-30T17:32:16;25.40;64.50
49821;DHT22;36893;52.520;13.450;2023-08-30T17:42:16;25.30;64.50
49821;DHT22;36893;52.520;13.450;2023-08-30T17:52:17;25.30;64.50
49821;DHT22;36893;52.520;13.450;2023-08-30T18:02:17;25.30;64.70
49821;DHT22;36893;52.520;13.450;2023-08-30T18:12:18;25.30;64.60
49821;DHT22;36893;52.520;13.450;2023-08-30T18:22:19;25.30;65.50
49821;DHT22;36893;52.520;13.450;2023-08-30T18:32:21;25.20;64.70
49821;DHT22;36893;52.520;13.450;2023-08-30T18:42:21;25.20;64.80
49821;DHT22;36893;52.520;13.450;2023-08-30T18:52:22;25.10;64.70
49821;DHT22;36893;52.520;13.450;2023-08-30T19:02:22;25.00;64.70
49821;DHT22;36893;52.520;13.450;2023-08-30T19:12:23;24.90;65.00
49821;DHT22;36893;52.520;13.450;2023-08-30T19:22:24;24.90;65.40
49821;DHT22;36893;52.520;13.450;2023-08-30T19:32:26;24.90;65.60
49821;DHT22;36893;52.520;13.450;2023-08-30T19:42:28;24.90;65.80
49821;DHT22;36893;52.520;13.450;2023-08-30T19:52:29;24.90;65.80
49821;DHT22;36893;52.520;13.450;2023-08-30T20:02:30;24.80;65.90
49821;DHT22;36893;52.520;13.450;2023-08-30T20:12:31;24.80;66.00
49821;DHT22;36893;52.520;13.450;2023-08-30T20:22:31;24.70;66.30
49821;DHT22;36893;52.520;13.450;2023-08-30T20:32:32;24.60;66.30
49821;DHT22;36893;52.520;13.450;2023-08-30T20:42:33;24.60;66.60
49821;DHT22;36893;52.520;13.450;2023-08-30T20:52:34;24.60;66.50
49821;DHT22;36893;52.520;13.450;2023-08-30T21:02:34;24.60;66.50
49821;DHT22;36893;52.520;13.450;2023-08-30T21:12:36;24.60;66.60
49821;DHT22;36893;52.520;13.450;2023-08-30T21:22:37;24.60;66.60
49821;DHT22;36893;52.520;13.450;2023-08-30T21:32:38;24.50;66.70
49821;DHT22;36893;52.520;13.450;2023-08-30T21:42:40;24.50;66.80
49821;DHT22;36893;52.520;13.450;2023-08-30T21:52:41;24.50;67.00
49821;DHT22;36893;52.520;13.450;2023-08-30T22:02:44;24.40;67.20
49821;DHT22;36893;52.520;13.450;2023-08-30T22:12:46;24.40;67.30
49821;DHT22;36893;52.520;13.450;2023-08-30T22:22:48;24.30;67.40
49821;DHT22;36893;52.520;13.450;2023-08-30T22:32:49;24.30;67.70
49821;DHT22;36893;52.520;13.450;2023-08-30T22:42:49;24.30;67.90
49821;DHT22;36893;52.520;13.450;2023-08-30T22:52:51;24.20;68.10
49821;DHT22;36893;52.520;13.450;2023-08-30T23:02:53;24.20;68.30
49821;DHT22;36893;52.520;13.450;2023-08-30T23:12:53;24.10;68.30
49821;DHT22;36893;52.520;13.450;2023-08-30T23:22:54;24.20;68.60
49821;DHT22;36893;52.520;13.450;2023-08-30T23:32:56;24.10;68.70
49821;DHT22;36893;52.520;13.450;2023-08-30T23:42:56;24.10;68.70
49821;DHT22;36893;52.520;13.450;2023-08-30T23:52:57;24.10;68.70
